EBBE

Beauvechain Air Base Airport

Beauvechain, Belgium
METAR EBBE 181325Z 16012KT 9999 FEW020 BKN250 08/03 Q1017 BLU BLU
Observed Flight Rules
Dec-18 @ 13:25 UTC (26 minutes ago) Visual Flight Rules
Wind Visibility Clouds
160° at 12 knots 10,000+ meters
  • Few at 2,000' AGL
  • Broken at 25,000' AGL
Temperatures Readings
Current 8°C / 46°F
Dewpoint 3°C / 37°F
Humidity 71%
Altimeter 30.03" Hg
Pressure 1017 hPa
Elevation 127
METAR EBBE 181325Z 16012KT 9999 FEW020 BKN250 08/03 Q1017 BLU BLU
Observed Flight Rules
Dec-18 @ 13:25 UTC
(26 minutes ago)
VFR
Wind Visibility
160° at 12 knots 10,000+ meters
Clouds
  • Few at 2,000' AGL
  • Broken at 25,000' AGL
Temperature Dewpoint
8°C / 46°F 3°C / 37°F
Humidity Altimeter Pressure
71% 30.03" Hg 1017 hPa